createdAt,value
2018-04-22T00:01:31.678Z,19.80
2018-04-22T00:03:58.136Z,17.40
2018-04-22T00:06:24.569Z,21.83
2018-04-22T00:08:51.036Z,19.90
2018-04-22T00:11:17.467Z,18.00
2018-04-22T00:13:43.972Z,22.20
2018-04-22T00:16:10.387Z,19.90
2018-04-22T00:18:36.813Z,23.43
2018-04-22T00:21:03.261Z,16.90
2018-04-22T00:23:29.666Z,22.07
2018-04-22T00:25:56.082Z,20.13
2018-04-22T00:28:23.224Z,17.90
2018-04-22T00:30:50.329Z,19.40
2018-04-22T00:33:16.770Z,26.03
2018-04-22T00:35:43.197Z,18.80
2018-04-22T00:38:09.599Z,23.97
2018-04-22T00:40:36.008Z,16.17
2018-04-22T00:43:02.464Z,19.90
2018-04-22T00:45:28.885Z,23.43
2018-04-22T00:47:55.300Z,21.00
2018-04-22T00:50:21.717Z,26.00
2018-04-22T00:52:48.104Z,21.70
2018-04-22T00:55:14.515Z,18.70
2018-04-22T00:57:40.960Z,21.93
2018-04-22T01:00:07.368Z,20.13
2018-04-22T01:02:33.752Z,19.67
2018-04-22T01:05:00.204Z,21.43
2018-04-22T01:07:27.347Z,22.07
2018-04-22T01:09:54.590Z,21.17
2018-04-22T01:12:21.784Z,15.77
2018-04-22T01:14:48.198Z,20.60
2018-04-22T01:17:15.388Z,19.23
2018-04-22T01:19:41.864Z,21.87
2018-04-22T01:22:08.274Z,18.00
2018-04-22T01:24:34.680Z,18.63
2018-04-22T01:27:01.457Z,19.03
2018-04-22T01:29:27.864Z,21.97
2018-04-22T01:31:54.318Z,24.03
2018-04-22T01:34:20.713Z,20.20
2018-04-22T01:36:47.853Z,22.73
2018-04-22T01:39:14.253Z,19.60
2018-04-22T01:41:41.434Z,22.07
2018-04-22T01:44:07.829Z,20.90
2018-04-22T01:46:34.949Z,20.70
2018-04-22T01:49:01.392Z,17.87
2018-04-22T01:51:27.820Z,16.33
2018-04-22T01:53:54.187Z,22.07
2018-04-22T01:56:20.579Z,19.40
2018-04-22T01:58:46.988Z,19.13
2018-04-22T02:01:13.409Z,22.67
2018-04-22T02:03:39.801Z,16.57
2018-04-22T02:06:07.097Z,15.83
2018-04-22T02:08:33.520Z,21.13
2018-04-22T02:10:59.963Z,17.20
2018-04-22T02:13:26.356Z,20.83
2018-04-22T02:15:52.742Z,19.43
2018-04-22T02:18:19.142Z,22.93
2018-04-22T02:20:45.507Z,20.17
2018-04-22T02:23:18.763Z,18.90
2018-04-22T02:25:45.268Z,21.33
2018-04-22T02:28:11.685Z,24.80
2018-04-22T02:30:38.840Z,20.93
2018-04-22T02:33:05.296Z,22.33
2018-04-22T02:35:31.712Z,21.93
2018-04-22T02:37:58.291Z,18.23
2018-04-22T02:40:24.636Z,23.60
2018-04-22T02:42:51.068Z,23.80
2018-04-22T02:45:17.470Z,20.87
2018-04-22T02:47:43.893Z,26.87
2018-04-22T02:50:10.287Z,22.92
2018-04-22T02:52:37.421Z,25.62
2018-04-22T02:55:13.752Z,22.00
2018-04-22T02:57:40.142Z,26.05
2018-04-22T03:00:06.574Z,27.67
2018-04-22T03:02:32.944Z,18.52
2018-04-22T03:04:59.379Z,20.90
2018-04-22T03:07:25.803Z,19.58
2018-04-22T03:09:52.257Z,24.90
2018-04-22T03:12:18.656Z,21.25
2018-04-22T03:14:45.029Z,20.40
2018-04-22T03:17:11.423Z,23.40
2018-04-22T03:19:37.883Z,20.15
2018-04-22T03:22:04.271Z,19.08
2018-04-22T03:24:30.697Z,22.65
2018-04-22T03:26:57.992Z,19.77
2018-04-22T03:29:24.380Z,21.00
2018-04-22T03:31:50.776Z,19.08
2018-04-22T03:34:24.011Z,19.30
2018-04-22T03:36:50.393Z,24.00
2018-04-22T03:39:16.793Z,22.85
2018-04-22T03:41:43.328Z,18.35
2018-04-22T03:44:09.701Z,19.60
2018-04-22T03:46:36.837Z,22.27
2018-04-22T03:49:03.243Z,19.60
2018-04-22T03:51:29.608Z,21.98
2018-04-22T03:53:56.759Z,22.67
2018-04-22T03:56:23.204Z,16.80
2018-04-22T03:58:49.669Z,25.85
2018-04-22T04:01:16.089Z,20.00
2018-04-22T04:03:42.501Z,27.42
2018-04-22T04:06:09.036Z,20.42
2018-04-22T04:08:35.424Z,30.60
2018-04-22T04:11:01.825Z,16.98
2018-04-22T04:13:28.260Z,25.30
2018-04-22T04:15:54.628Z,21.58
2018-04-22T04:21:55.030Z,19.55
2018-04-22T04:24:49.648Z,22.20
2018-04-22T04:30:23.397Z,18.65
2018-04-22T04:32:50.524Z,23.02
2018-04-22T04:35:16.904Z,20.17
2018-04-22T04:37:43.301Z,17.85
2018-04-22T04:40:09.708Z,20.23
2018-04-22T04:42:36.087Z,17.35
2018-04-22T04:45:02.641Z,23.33
2018-04-22T04:47:29.004Z,20.33
2018-04-22T04:49:55.480Z,21.75
2018-04-22T04:52:22.612Z,25.88
2018-04-22T04:54:50.530Z,21.37
2018-04-22T04:57:17.760Z,17.92
2018-04-22T04:59:44.180Z,18.27
2018-04-22T05:02:10.624Z,16.50
2018-04-22T05:04:37.000Z,17.90
2018-04-22T05:07:03.467Z,24.85
2018-04-22T05:09:30.574Z,21.52
2018-04-22T05:11:56.997Z,22.58
2018-04-22T05:14:23.387Z,19.05
2018-04-22T05:16:49.819Z,23.17
2018-04-22T05:19:16.949Z,20.88
2018-04-22T05:21:44.120Z,15.40
2018-04-22T05:24:10.475Z,20.35
2018-04-22T05:26:36.897Z,18.23
2018-04-22T05:29:03.365Z,19.05
2018-04-22T05:31:29.761Z,20.62
2018-04-22T05:33:56.168Z,21.07
2018-04-22T05:36:22.565Z,16.90
2018-04-22T05:38:48.956Z,16.37
2018-04-22T05:41:15.392Z,19.48
2018-04-22T05:43:41.811Z,18.90
2018-04-22T05:46:08.943Z,22.40
2018-04-22T05:48:35.353Z,21.73
2018-04-22T05:51:02.510Z,24.20
2018-04-22T05:53:29.681Z,18.30
2018-04-22T05:55:56.116Z,20.07
2018-04-22T05:58:22.601Z,22.20
2018-04-22T06:00:49.073Z,24.87
2018-04-22T06:03:16.213Z,23.10
2018-04-22T06:05:43.209Z,20.00
2018-04-22T06:08:09.609Z,19.77
2018-04-22T06:10:36.045Z,23.40
2018-04-22T06:13:02.428Z,21.63
2018-04-22T06:15:28.863Z,21.50
2018-04-22T06:17:55.255Z,21.00
2018-04-22T06:20:21.725Z,20.60
2018-04-22T06:22:48.202Z,24.10
2018-04-22T06:25:15.372Z,22.40
2018-04-22T06:27:41.773Z,23.10
2018-04-22T06:30:08.243Z,29.13
2018-04-22T06:32:34.659Z,22.87
2018-04-22T06:35:01.080Z,23.83
2018-04-22T06:37:27.502Z,25.40
2018-04-22T06:39:54.679Z,31.07
2018-04-22T06:42:21.085Z,28.93
2018-04-22T06:44:47.531Z,28.23
2018-04-22T06:47:13.970Z,30.07
2018-04-22T06:49:40.420Z,28.20
2018-04-22T06:52:06.881Z,31.90
2018-04-22T06:54:33.272Z,32.27
2018-04-22T06:56:59.721Z,31.03
2018-04-22T06:59:26.161Z,27.10
2018-04-22T07:01:52.586Z,21.43
2018-04-22T07:04:19.068Z,24.67
2018-04-22T07:06:45.505Z,29.33
2018-04-22T07:09:11.991Z,27.33
2018-04-22T07:11:38.477Z,24.20
2018-04-22T07:14:04.979Z,23.87
2018-04-22T07:16:32.147Z,28.33
2018-04-22T07:18:59.376Z,30.70
2018-04-22T07:21:26.552Z,25.67
2018-04-22T07:23:52.991Z,28.77
2018-04-22T07:26:19.378Z,25.63
2018-04-22T07:28:46.588Z,29.20
2018-04-22T07:31:13.009Z,24.80
2018-04-22T07:33:39.520Z,30.03
2018-04-22T07:36:06.007Z,25.43
2018-04-22T07:38:32.476Z,25.33
2018-04-22T07:40:59.701Z,20.63
2018-04-22T07:43:26.968Z,24.83
2018-04-22T07:45:54.235Z,24.30
2018-04-22T07:48:20.889Z,24.00
2018-04-22T07:50:47.388Z,26.60
2018-04-22T07:53:20.715Z,28.23
2018-04-22T07:55:47.141Z,23.40
2018-04-22T07:58:13.539Z,31.93
2018-04-22T08:00:39.967Z,24.60
2018-04-22T08:03:06.373Z,23.83
2018-04-22T08:05:32.907Z,22.43
2018-04-22T08:07:59.457Z,20.70
2018-04-22T08:10:25.919Z,26.63
2018-04-22T08:12:53.060Z,22.67
2018-04-22T08:15:20.224Z,30.30
2018-04-22T08:17:46.641Z,27.07
2018-04-22T08:20:13.954Z,19.70
2018-04-22T08:22:40.367Z,19.17
2018-04-22T08:25:06.970Z,19.57
2018-04-22T08:27:33.418Z,27.83
2018-04-22T08:29:59.871Z,19.63
2018-04-22T08:32:26.315Z,19.47
2018-04-22T08:34:52.776Z,21.33
2018-04-22T08:37:19.967Z,17.00
2018-04-22T08:39:46.341Z,14.90
2018-04-22T08:42:12.787Z,13.50
2018-04-22T08:44:39.220Z,19.13
2018-04-22T08:47:05.656Z,20.60
2018-04-22T08:49:32.166Z,22.97
2018-04-22T08:51:58.627Z,16.60
2018-04-22T08:54:25.000Z,20.50
2018-04-22T08:56:51.432Z,17.10
2018-04-22T08:59:18.653Z,25.67
2018-04-22T09:01:45.046Z,16.23
2018-04-22T09:04:11.477Z,17.47
2018-04-22T09:06:37.859Z,13.03
2018-04-22T09:09:05.094Z,13.90
2018-04-22T09:11:31.520Z,17.03
2018-04-22T09:13:58.680Z,17.30
2018-04-22T09:16:25.152Z,16.60
2018-04-22T09:18:51.501Z,14.67
2018-04-22T09:21:17.944Z,15.63
2018-04-22T09:23:44.370Z,17.37
2018-04-22T09:26:10.802Z,15.13
2018-04-22T09:28:37.227Z,18.50
2018-04-22T09:31:03.712Z,18.50
2018-04-22T09:33:30.152Z,16.93
2018-04-22T09:35:56.546Z,16.27
2018-04-22T09:38:23.671Z,17.20
2018-04-22T09:40:50.117Z,13.80
2018-04-22T09:43:16.553Z,18.83
2018-04-22T09:45:43.745Z,17.33
2018-04-22T09:48:10.207Z,12.93
2018-04-22T09:50:36.604Z,13.03
2018-04-22T09:53:03.021Z,14.33
2018-04-22T09:55:29.446Z,17.63
2018-04-22T09:57:55.868Z,19.43
2018-04-22T10:00:28.556Z,14.73
2018-04-22T10:02:55.059Z,13.90
2018-04-22T10:05:21.493Z,21.20
2018-04-22T10:07:47.985Z,12.57
2018-04-22T10:10:14.362Z,13.80
2018-04-22T10:12:40.777Z,12.70
2018-04-22T10:15:07.220Z,19.40
2018-04-22T10:17:34.447Z,17.73
2018-04-22T10:20:00.898Z,14.73
2018-04-22T10:22:27.394Z,14.60
2018-04-22T10:24:53.977Z,15.20
2018-04-22T10:27:21.133Z,17.03
2018-04-22T10:29:48.330Z,11.87
2018-04-22T10:32:14.749Z,11.50
2018-04-22T10:34:41.183Z,13.07
2018-04-22T10:37:07.630Z,17.43
2018-04-22T10:39:34.225Z,14.13
2018-04-22T10:42:00.650Z,10.03
2018-04-22T10:44:27.085Z,13.13
2018-04-22T10:46:53.552Z,13.13
2018-04-22T10:49:20.021Z,13.97
2018-04-22T10:51:46.429Z,10.70
2018-04-22T10:54:12.806Z,15.03
2018-04-22T10:56:39.258Z,16.00
2018-04-22T10:59:05.813Z,11.10
2018-04-22T11:01:32.175Z,11.63
2018-04-22T11:03:59.556Z,14.57
2018-04-22T11:06:26.765Z,12.20
2018-04-22T11:08:53.631Z,11.13
2018-04-22T11:11:20.906Z,13.17
2018-04-22T11:13:48.067Z,10.87
2018-04-22T11:16:14.511Z,13.60
2018-04-22T11:18:41.001Z,10.00
2018-04-22T11:21:07.428Z,11.30
2018-04-22T11:23:33.832Z,10.03
2018-04-22T11:26:00.241Z,14.17
2018-04-22T11:28:26.672Z,9.90
2018-04-22T11:30:53.139Z,12.70
2018-04-22T11:33:19.576Z,13.03
2018-04-22T11:35:46.075Z,10.70
2018-04-22T11:38:12.474Z,11.40
2018-04-22T11:40:38.932Z,11.77
2018-04-22T11:43:05.389Z,12.90
2018-04-22T11:45:32.885Z,9.20
2018-04-22T11:48:00.070Z,13.23
2018-04-22T11:50:26.512Z,10.93
2018-04-22T11:52:52.940Z,8.57
2018-04-22T11:55:20.107Z,12.73
2018-04-22T11:57:46.650Z,11.80
2018-04-22T12:00:13.144Z,13.50
2018-04-22T12:02:39.583Z,14.23
2018-04-22T12:05:06.072Z,11.60
2018-04-22T12:07:33.275Z,9.77
2018-04-22T12:09:59.678Z,15.03
2018-04-22T12:12:26.239Z,15.30
2018-04-22T12:14:52.725Z,9.97
2018-04-22T12:17:19.212Z,10.07
2018-04-22T12:19:45.620Z,10.23
2018-04-22T12:22:12.117Z,6.60
2018-04-22T12:24:41.322Z,8.97
2018-04-22T12:27:08.452Z,11.03
2018-04-22T12:29:34.912Z,10.27
2018-04-22T12:32:01.310Z,14.43
2018-04-22T12:34:27.925Z,18.63
2018-04-22T12:36:54.524Z,12.80
2018-04-22T12:39:20.986Z,9.20
2018-04-22T12:41:47.516Z,8.77
2018-04-22T12:44:13.933Z,9.80
2018-04-22T12:46:40.451Z,9.13
2018-04-22T12:49:07.029Z,12.67
2018-04-22T12:51:34.296Z,7.90
2018-04-22T12:54:00.754Z,8.40
2018-04-22T12:56:27.238Z,10.13
2018-04-22T12:58:53.685Z,8.20
2018-04-22T13:01:20.179Z,8.90
2018-04-22T13:03:46.603Z,7.67
2018-04-22T13:06:13.064Z,8.97
2018-04-22T13:08:39.548Z,8.10
2018-04-22T13:11:06.754Z,12.80
2018-04-22T13:13:33.206Z,9.63
2018-04-22T13:15:59.620Z,10.70
2018-04-22T13:18:26.066Z,8.80
2018-04-22T13:20:52.482Z,9.40
2018-04-22T13:23:18.931Z,11.17
2018-04-22T13:25:45.375Z,8.43
2018-04-22T13:28:11.887Z,10.47
2018-04-22T13:30:38.289Z,8.03
2018-04-22T13:33:04.757Z,8.77
2018-04-22T13:35:31.223Z,9.80
2018-04-22T13:37:57.630Z,11.90
2018-04-22T13:40:24.129Z,15.33
2018-04-22T13:42:50.572Z,9.60
2018-04-22T13:45:17.244Z,9.97
2018-04-22T13:47:43.711Z,7.70
2018-04-22T13:50:10.133Z,11.20
2018-04-22T13:52:36.641Z,9.43
2018-04-22T13:55:03.857Z,9.30
2018-04-22T13:57:30.314Z,14.10
2018-04-22T13:59:56.785Z,9.47
2018-04-22T14:02:23.386Z,10.90
2018-04-22T14:04:49.803Z,10.77
2018-04-22T14:07:16.283Z,7.77
2018-04-22T14:09:42.708Z,9.30
2018-04-22T14:12:09.860Z,7.93
2018-04-22T14:14:37.052Z,8.97
2018-04-22T16:11:44.191Z,14.37
2018-04-22T16:14:10.711Z,18.13
2018-04-22T16:16:37.584Z,9.87
2018-04-22T16:19:04.139Z,9.77
2018-04-22T16:21:30.719Z,11.50
2018-04-22T16:23:57.290Z,9.20
2018-04-22T16:26:23.801Z,8.83
2018-04-22T16:28:50.448Z,7.03
2018-04-22T16:31:17.328Z,10.33
2018-04-22T16:33:44.353Z,12.97
2018-04-22T16:36:10.992Z,6.57
2018-04-22T16:38:37.727Z,10.47
2018-04-22T16:41:04.289Z,6.83
2018-04-22T16:43:30.869Z,7.83
2018-04-22T16:45:57.641Z,13.50
2018-04-22T16:48:24.198Z,10.83
2018-04-22T16:50:50.684Z,8.47
2018-04-22T16:53:17.106Z,12.60
2018-04-22T16:55:44.396Z,7.53
2018-04-22T16:58:10.911Z,9.70
2018-04-22T17:00:37.429Z,9.70
2018-04-22T17:03:03.858Z,9.50
2018-04-22T17:05:30.276Z,8.97
2018-04-22T17:07:56.724Z,10.90
2018-04-22T17:10:23.200Z,9.67
2018-04-22T17:12:49.714Z,17.23
2018-04-22T17:15:16.218Z,11.07
2018-04-22T17:17:42.736Z,11.33
2018-04-22T17:20:09.194Z,12.50
2018-04-22T17:22:35.640Z,16.03
2018-04-22T17:25:02.117Z,14.00
2018-04-22T17:27:28.645Z,9.33
2018-04-22T17:29:55.108Z,13.77
2018-04-22T17:32:22.333Z,15.10
2018-04-22T17:34:48.797Z,17.50
2018-04-22T17:37:15.368Z,12.73
2018-04-22T17:39:41.798Z,14.43
2018-04-22T17:42:08.268Z,14.10
2018-04-22T17:47:19.675Z,12.33
2018-04-22T17:49:46.817Z,10.90
2018-04-22T17:52:13.309Z,13.27
2018-04-22T17:54:39.753Z,12.50
2018-04-22T17:57:06.204Z,12.00
2018-04-22T17:59:32.629Z,15.40
2018-04-22T18:01:59.141Z,14.10
2018-04-22T18:04:25.580Z,14.23
2018-04-22T18:06:59.071Z,17.27
2018-04-22T18:09:25.456Z,14.80
2018-04-22T18:11:52.662Z,13.83
2018-04-22T18:14:19.066Z,11.33
2018-04-22T18:16:45.588Z,15.33
2018-04-22T18:19:12.081Z,14.73
2018-04-22T18:21:38.656Z,11.00
2018-04-22T18:24:05.116Z,11.03
2018-04-22T18:26:31.632Z,7.97
2018-04-22T18:28:58.085Z,10.53
2018-04-22T18:31:24.577Z,9.03
2018-04-22T18:33:51.763Z,10.27
2018-04-22T18:36:18.203Z,12.33
2018-04-22T18:38:44.683Z,9.53
2018-04-22T18:41:11.985Z,10.73
2018-04-22T18:43:38.501Z,7.80
2018-04-22T18:46:05.024Z,12.43
2018-04-22T18:48:31.501Z,8.60
2018-04-22T18:50:57.996Z,9.30
2018-04-22T18:53:24.430Z,8.97
2018-04-22T18:55:50.910Z,11.30
2018-04-22T18:58:17.341Z,9.10
2018-04-22T19:00:45.676Z,10.57
2018-04-22T19:03:12.136Z,10.40
2018-04-22T19:05:38.731Z,11.30
2018-04-22T19:08:05.213Z,10.10
2018-04-22T19:10:31.716Z,11.20
2018-04-22T19:12:58.211Z,14.60
2018-04-22T19:15:24.712Z,13.53
2018-04-22T19:17:51.185Z,11.30
2018-04-22T19:20:18.377Z,12.60
2018-04-22T19:22:44.914Z,12.87
2018-04-22T19:25:11.462Z,6.53
2018-04-22T19:27:37.993Z,8.90
2018-04-22T19:30:04.496Z,14.43
2018-04-22T19:32:30.960Z,9.13
2018-04-22T19:34:57.438Z,11.63
2018-04-22T19:37:24.664Z,9.40
2018-04-22T19:39:51.346Z,13.23
2018-04-22T19:42:17.841Z,12.57
2018-04-22T19:44:44.368Z,11.20
2018-04-22T19:47:11.660Z,11.30
2018-04-22T19:49:38.191Z,10.13
2018-04-22T19:52:04.850Z,12.80
2018-04-22T19:54:31.407Z,9.60
2018-04-22T19:56:57.828Z,10.50
2018-04-22T19:59:24.266Z,10.73
2018-04-22T20:01:50.777Z,11.43
2018-04-22T20:04:17.307Z,9.23
2018-04-22T20:06:43.774Z,11.30
2018-04-22T20:09:10.195Z,12.23
2018-04-22T20:11:36.710Z,12.33
2018-04-22T20:14:03.188Z,9.40
2018-04-22T20:16:30.349Z,10.20
2018-04-22T20:18:56.841Z,8.67
2018-04-22T20:21:24.912Z,8.70
2018-04-22T20:23:51.450Z,9.00
2018-04-22T20:26:17.884Z,11.57
2018-04-22T20:28:44.307Z,8.30
2018-04-22T20:31:10.838Z,9.33
2018-04-22T20:33:37.342Z,13.23
2018-04-22T20:36:03.885Z,8.97
2018-04-22T20:38:30.342Z,10.40
2018-04-22T20:40:56.785Z,10.30
2018-04-22T20:43:23.231Z,9.20
2018-04-22T20:45:49.813Z,8.87
2018-04-22T20:48:16.260Z,9.27
2018-04-22T20:50:42.752Z,8.20
2018-04-22T20:53:09.822Z,12.63
2018-04-22T20:55:36.233Z,9.47
2018-04-22T20:58:02.823Z,12.93
2018-04-22T21:00:29.312Z,10.10
2018-04-22T21:02:55.795Z,14.47
2018-04-22T21:05:22.293Z,16.10
2018-04-22T21:07:48.796Z,9.47
2018-04-22T21:10:15.956Z,17.37
2018-04-22T21:12:43.185Z,6.53
2018-04-22T21:15:09.644Z,10.07
2018-04-22T21:17:37.654Z,10.33
2018-04-22T21:20:04.100Z,13.33
2018-04-22T21:22:30.529Z,12.23
2018-04-22T21:24:56.959Z,13.13
2018-04-22T21:27:23.381Z,17.30
2018-04-22T21:29:49.836Z,14.83
2018-04-22T21:32:20.417Z,9.83
2018-04-22T21:34:47.764Z,11.70
2018-04-22T21:37:14.311Z,11.93
2018-04-22T21:39:40.901Z,13.30
2018-04-22T21:42:07.317Z,10.43
2018-04-22T21:44:34.525Z,13.40
2018-04-22T21:47:00.980Z,10.17
2018-04-22T21:49:27.390Z,10.77
2018-04-22T21:51:53.868Z,9.30
2018-04-22T21:54:21.113Z,10.07
2018-04-22T21:56:47.673Z,7.90
2018-04-22T21:59:14.220Z,12.60
2018-04-22T22:01:40.621Z,8.43
2018-04-22T22:04:07.013Z,8.30
2018-04-22T22:06:33.781Z,11.27
2018-04-22T22:09:00.248Z,8.23
2018-04-22T22:11:26.671Z,8.30
2018-04-22T22:13:53.824Z,9.43
2018-04-22T22:16:20.228Z,8.03
2018-04-22T22:18:46.672Z,8.73
2018-04-22T22:21:13.839Z,8.27
2018-04-22T22:23:40.285Z,13.30
2018-04-22T22:26:06.726Z,10.23
2018-04-22T22:28:33.168Z,7.37
2018-04-22T22:30:59.542Z,9.43
2018-04-22T22:33:25.959Z,7.83
2018-04-22T22:35:52.412Z,8.50
2018-04-22T22:38:18.828Z,6.80
2018-04-22T22:40:45.238Z,10.97
2018-04-22T22:43:11.660Z,7.97
2018-04-22T22:45:38.153Z,9.93
2018-04-22T22:48:04.533Z,7.43
2018-04-22T22:50:30.953Z,7.47
2018-04-22T22:52:57.368Z,12.17
2018-04-22T22:55:23.829Z,9.63
2018-04-22T22:57:50.229Z,8.83
2018-04-22T23:00:16.745Z,7.77
2018-04-22T23:02:43.208Z,8.47
2018-04-22T23:05:09.653Z,5.70
2018-04-22T23:07:36.176Z,11.87
2018-04-22T23:10:02.684Z,5.80
2018-04-22T23:12:29.096Z,8.03
2018-04-22T23:14:56.253Z,6.73
2018-04-22T23:17:22.668Z,5.60
2018-04-22T23:19:49.108Z,7.77
2018-04-22T23:22:16.276Z,21.77
2018-04-22T23:24:42.717Z,7.97
2018-04-22T23:27:09.128Z,8.10
2018-04-22T23:29:35.482Z,8.53
2018-04-22T23:32:01.963Z,10.37
2018-04-22T23:34:29.162Z,6.30
2018-04-22T23:36:55.528Z,7.37
2018-04-22T23:39:21.932Z,14.20
2018-04-22T23:41:48.393Z,6.47
2018-04-22T23:44:14.876Z,22.70
2018-04-22T23:46:41.312Z,7.33
2018-04-22T23:49:07.755Z,9.73
2018-04-22T23:51:34.158Z,11.30
2018-04-22T23:54:00.604Z,7.10
2018-04-22T23:56:26.992Z,9.13
2018-04-22T23:58:53.377Z,6.53
